KHON

Huron Regional Airport

Huron, South Dakota, USA
KHON 212320Z 2200/2224 12012G18KT P6SM OVC015 FM220300 10007KT P6SM VCSH OVC015 FM220600 07006KT 3SM -SN OVC015 FM221200 34014G21KT 1 1/2SM -SN BLSN OVC010 FM221900 34015G23KT P6SM BKN020
Issued Valid From Valid To
Jan-21 @ 23:20 UTC
(50 minutes ago)
Jan-22 @ 00:00 UTC
(10 minutes ago)
Jan-23 @ 00:00 UTC
(in 24 hours)
Jan-22 @ 00:00 to Jan-22 @ 03:00
KHON 212320Z 2200/2224 12012G18KT P6SM OVC015
Wind Visibility Clouds
120° at 12 knots
 Gusting to 18 knots
Greater than 6 miles
  • Overcast at 1,500' AGL
From Jan-22 @ 03:00 to Jan-22 @ 06:00
FM220300 10007KT P6SM VCSH OVC015
Wind Visibility Clouds
100° at 7 knots Greater than 6 miles
  • Overcast at 1,500' AGL
From Jan-22 @ 06:00 to Jan-22 @ 12:00
FM220600 07006KT 3SM -SN OVC015
Wind Visibility Clouds Conditions
70° at 6 knots 3 miles
  • Overcast at 1,500' AGL
  • Light Snow
From Jan-22 @ 12:00 to Jan-22 @ 19:00
FM221200 34014G21KT 1 1/2SM -SN BLSN OVC010
Wind Visibility Clouds Conditions
340° at 14 knots
 Gusting to 21 knots
1 1/2 miles
  • Overcast at 1,000' AGL
  • Light Snow
  • Blowing
  • Snow
From Jan-22 @ 19:00 to Jan-23 @ 00:00
FM221900 34015G23KT P6SM BKN020
Wind Visibility Clouds
340° at 15 knots
 Gusting to 23 knots
Greater than 6 miles
  • Broken at 2,000' AGL
KHON 212320Z 2200/2224 12012G18KT P6SM OVC015 FM220300 10007KT P6SM VCSH OVC015 FM220600 07006KT 3SM -SN OVC015 FM221200 34014G21KT 1 1/2SM -SN BLSN OVC010 FM221900 34015G23KT P6SM BKN020
Issued Jan-21 @ 23:20 UTC
(50 minutes ago)
Valid From Jan-22 @ 00:00 UTC
(10 minutes ago)
Valid To Jan-23 @ 00:00 UTC
(in 24 hours)
Jan-22 @ 00:00 - Jan-22 @ 03:00
Wind Visibility
120° at 12 knots
 Gusting to 18 knots
Greater than 6 miles
Clouds
  • Overcast at 1,500' AGL
From Jan-22 @ 03:00 - Jan-22 @ 06:00
Wind Visibility
100° at 7 knots Greater than 6 miles
Clouds
  • Overcast at 1,500' AGL
From Jan-22 @ 06:00 - Jan-22 @ 12:00
Wind Visibility
70° at 6 knots 3 miles
Clouds
  • Overcast at 1,500' AGL
Conditions
  • Light Snow
From Jan-22 @ 12:00 - Jan-22 @ 19:00
Wind Visibility
340° at 14 knots
 Gusting to 21 knots
1 1/2 miles
Clouds
  • Overcast at 1,000' AGL
Conditions
  • Light Snow
  • Blowing
  • Snow
From Jan-22 @ 19:00 - Jan-23 @ 00:00
Wind Visibility
340° at 15 knots
 Gusting to 23 knots
Greater than 6 miles
Clouds
  • Broken at 2,000' AGL